Time;durP1;ratioP1;P1;durP2;ratioP2;P2;SDS_P1;SDS_P2;PMS_P1;PMS_P2;Temp;Humidity;BMP_temperature;BMP_pressure;BME280_temperature;BME280_humidity;BME280_pressure;Samples;Min_cycle;Max_cycle;Signal;HPM_P1;HPM_P2
2022/01/14 00:01:17;;;;;;;2.42;1.50;;;;;;;1.69;100.00;99162.37;1733912;82;21017;-65
2022/01/14 00:03:44;;;;;;;2.67;1.30;;;;;;;1.71;100.00;99165.63;1740602;82;21054;-65
2022/01/14 00:06:10;;;;;;;2.98;1.60;;;;;;;1.69;100.00;99168.25;1735944;82;21031;-65
2022/01/14 00:08:37;;;;;;;;;;;;;;;1.74;100.00;99169.71;1733257;82;21011;-64
2022/01/14 00:11:04;;;;;;;3.52;1.60;;;;;;;1.77;100.00;99161.23;1717080;81;20434;-64
2022/01/14 00:16:05;;;;;;;3.08;1.42;;;;;;;1.71;100.00;99146.02;1710504;82;21047;-64
2022/01/14 00:18:32;;;;;;;2.85;1.45;;;;;;;1.78;100.00;99133.33;1726999;82;21083;-64
2022/01/14 00:21:00;;;;;;;3.15;1.60;;;;;;;1.75;100.00;99145.86;1725786;82;21027;-64
2022/01/14 00:23:31;;;;;;;2.95;1.57;;;;;;;1.78;100.00;99151.59;1733673;82;21063;-64
2022/01/14 00:36:17;;;;;;;2.52;1.30;;;;;;;1.82;100.00;99117.06;1800220;78;23484;-64
2022/01/14 00:38:44;;;;;;;3.05;1.37;;;;;;;1.80;100.00;99112.46;1739055;81;21075;-65
2022/01/14 00:41:10;;;;;;;2.80;1.40;;;;;;;1.84;100.00;99110.41;1726276;82;21601;-64
2022/01/14 00:43:40;;;;;;;3.20;1.37;;;;;;;1.86;100.00;99107.51;1745725;80;21106;-64
2022/01/14 00:46:06;;;;;;;3.35;1.50;;;;;;;1.83;100.00;99114.16;1751307;82;21011;-64
2022/01/14 00:48:33;;;;;;;2.52;1.15;;;;;;;1.85;100.00;99109.89;1746739;82;21050;-64
2022/01/14 00:50:59;;;;;;;;;;;;;;;1.92;100.00;99111.42;1750243;82;21597;-64
2022/01/14 00:53:26;;;;;;;2.12;1.10;;;;;;;1.97;100.00;99108.05;1727237;82;20132;-64
2022/01/14 00:55:59;;;;;;;1.98;1.30;;;;;;;1.87;100.00;99089.02;1749583;82;21413;-65
2022/01/14 01:00:53;;;;;;;2.00;1.20;;;;;;;1.92;100.00;99082.42;1714042;82;21498;-65
2022/01/14 01:03:19;;;;;;;1.72;0.90;;;;;;;1.93;100.00;99078.69;1728104;82;21549;-65
2022/01/14 01:05:46;;;;;;;2.22;1.17;;;;;;;1.97;100.00;99081.21;1724491;82;21535;-65
2022/01/14 01:08:19;;;;;;;;;;;;;;;1.98;100.00;99078.28;1737176;82;21066;-65
2022/01/14 01:10:47;;;;;;;2.55;1.15;;;;;;;1.95;100.00;99091.34;1722683;82;20442;-65
2022/01/14 01:13:15;;;;;;;3.05;1.05;;;;;;;1.96;100.00;99083.59;1738577;82;21704;-64
2022/01/14 01:15:37;;;;;;;3.67;1.10;;;;;;;2.00;100.00;99067.32;1746154;82;21082;-64
2022/01/14 01:18:03;;;;;;;2.62;1.15;;;;;;;1.98;100.00;99063.52;1728960;82;21074;-65
2022/01/14 01:20:30;;;;;;;4.65;1.30;;;;;;;1.99;100.00;99061.13;1730382;82;21098;-64
2022/01/14 01:22:56;;;;;;;1.85;1.02;;;;;;;2.02;100.00;99057.16;1737726;82;21585;-65
2022/01/14 01:25:27;;;;;;;2.27;1.00;;;;;;;2.02;100.00;99049.10;1733604;82;21582;-65
2022/01/14 01:27:54;;;;;;;2.75;1.10;;;;;;;1.98;100.00;99062.17;1725421;82;21053;-65
2022/01/14 01:32:56;;;;;;;3.05;1.30;;;;;;;2.07;100.00;99039.83;1742144;82;21046;-65
2022/01/14 01:35:23;;;;;;;2.20;1.00;;;;;;;2.06;100.00;99026.11;1731278;81;21066;-65
2022/01/14 01:37:49;;;;;;;2.35;1.27;;;;;;;2.01;100.00;99023.33;1711696;82;21098;-66
2022/01/14 01:40:16;;;;;;;3.22;1.60;;;;;;;2.00;100.00;99015.80;1713863;82;20988;-65
2022/01/14 01:42:43;;;;;;;;;;;;;;;2.05;100.00;99015.10;1721684;82;21040;-65
2022/01/14 01:45:11;;;;;;;2.42;1.47;;;;;;;1.98;100.00;98996.41;1721724;81;20398;-66
2022/01/14 01:47:38;;;;;;;2.62;1.45;;;;;;;1.93;100.00;98983.41;1729644;82;21429;-65
2022/01/14 01:50:11;;;;;;;2.62;1.50;;;;;;;1.96;100.00;98977.05;1717242;82;21063;-65
2022/01/14 01:52:38;;;;;;;2.83;1.70;;;;;;;1.98;100.00;98970.91;1720075;82;21115;-65
2022/01/14 01:55:06;;;;;;;2.83;1.50;;;;;;;1.95;100.00;98955.79;1722584;82;21031;-65
2022/01/14 01:57:32;;;;;;;2.27;1.50;;;;;;;1.97;100.00;98947.00;1721654;82;21059;-65
2022/01/14 01:59:59;;;;;;;2.37;1.62;;;;;;;1.99;100.00;98943.02;1726779;82;21618;-65
2022/01/14 02:02:26;;;;;;;3.80;1.70;;;;;;;1.99;100.00;98934.14;1715015;82;21076;-66
2022/01/14 02:04:52;;;;;;;;;;;;;;;1.96;100.00;98932.75;1730027;82;21680;-65
2022/01/14 02:07:19;;;;;;;3.55;1.92;;;;;;;2.00;100.00;98933.09;1735768;82;20115;-65
2022/01/14 02:09:45;;;;;;;5.40;1.87;;;;;;;1.97;100.00;98945.12;1726306;82;21114;-64
2022/01/14 02:12:11;;;;;;;3.75;1.52;;;;;;;1.95;100.00;98930.29;1708093;82;21056;-65
2022/01/14 02:22:56;;;;;;;3.37;1.95;;;;;;;1.98;100.00;98933.87;1723467;82;21087;-66
2022/01/14 02:25:32;;;;;;;2.90;1.87;;;;;;;2.02;100.00;98929.64;1720939;82;21043;-66
2022/01/14 02:27:52;;;;;;;3.67;2.10;;;;;;;1.98;100.00;98929.30;1724327;82;21048;-65
2022/01/14 02:30:18;;;;;;;3.40;1.90;;;;;;;2.03;100.00;98924.57;1719630;82;21039;-65
2022/01/14 02:32:45;;;;;;;3.47;2.02;;;;;;;2.07;100.00;98919.55;1713319;82;21051;-66
2022/01/14 02:35:11;;;;;;;3.85;2.22;;;;;;;2.06;100.00;98917.91;1739648;82;21058;-65
2022/01/14 02:37:38;;;;;;;3.30;1.90;;;;;;;2.06;100.00;98912.53;1734424;82;21024;-65
2022/01/14 02:40:06;;;;;;;4.92;2.40;;;;;;;2.11;100.00;98902.73;1734512;82;21652;-66
2022/01/14 02:42:32;;;;;;;3.25;1.98;;;;;;;2.09;100.00;98896.77;1737152;82;21063;-66
2022/01/14 02:45:03;;;;;;;;;;;;;;;2.10;100.00;98897.59;1752197;82;21058;-65
2022/01/14 02:47:27;;;;;;;;;;;;;;;2.12;100.00;98894.16;1740973;82;20105;-65
2022/01/14 02:49:53;;;;;;;4.85;2.33;;;;;;;2.05;100.00;98892.95;1731602;82;20431;-66
2022/01/14 02:56:13;;;;;;;3.80;2.12;;;;;;;2.10;100.00;98868.88;1819050;79;22995;-65
2022/01/14 02:58:40;;;;;;;4.58;2.37;;;;;;;2.00;100.00;98863.30;1760690;80;21076;-66
2022/01/14 03:01:10;;;;;;;3.40;2.02;;;;;;;1.99;100.00;98850.41;1758940;81;21516;-66
2022/01/14 03:03:38;;;;;;;3.90;2.40;;;;;;;2.02;100.00;98846.42;1760363;80;21089;-66
2022/01/14 03:06:05;;;;;;;4.42;2.20;;;;;;;2.00;100.00;98834.59;1751832;81;21023;-66
2022/01/14 03:08:32;;;;;;;4.72;2.35;;;;;;;1.99;100.00;98841.02;1763044;80;21050;-66
2022/01/14 03:11:06;;;;;;;3.52;2.00;;;;;;;2.03;100.00;98835.16;1749878;81;20992;-66
2022/01/14 03:13:35;;;;;;;2.87;2.00;;;;;;;2.01;100.00;98839.44;1756870;80;21022;-66
2022/01/14 03:20:50;;;;;;;3.67;2.40;;;;;;;2.09;100.00;98840.39;1785323;78;28466;-66
2022/01/14 03:23:13;;;;;;;3.35;2.20;;;;;;;2.21;100.00;98832.30;1760677;80;21067;-65
2022/01/14 03:25:48;;;;;;;5.08;2.35;;;;;;;2.32;100.00;98825.55;1752215;82;21005;-65
2022/01/14 03:28:22;;;;;;;4.03;2.35;;;;;;;2.30;100.00;98821.48;1730721;82;21157;-64
2022/01/14 03:30:51;;;;;;;4.03;2.10;;;;;;;2.20;100.00;98811.34;1744077;82;21070;-65
2022/01/14 03:33:19;;;;;;;3.37;1.87;;;;;;;2.19;100.00;98801.67;1725704;82;21718;-66
2022/01/14 03:35:46;;;;;;;3.15;2.10;;;;;;;2.17;100.00;98799.73;1738003;82;21007;-66
2022/01/14 03:38:12;;;;;;;4.67;2.70;;;;;;;2.12;100.00;98782.22;1739523;82;21023;-66
2022/01/14 03:40:38;;;;;;;4.65;2.40;;;;;;;2.12;100.00;98772.81;1746952;82;21051;-66
2022/01/14 03:43:05;;;;;;;;;;;;;;;2.16;100.00;98762.41;1726063;82;21134;-66
2022/01/14 03:45:31;;;;;;;3.47;1.77;;;;;;;2.12;100.00;98768.79;1725509;82;20113;-66
2022/01/14 03:47:58;;;;;;;4.50;2.37;;;;;;;2.08;100.00;98760.11;1736001;82;20995;-65
2022/01/14 03:50:25;;;;;;;5.00;2.37;;;;;;;2.10;100.00;98744.03;1743371;82;21046;-66
2022/01/14 03:52:52;;;;;;;4.05;2.25;;;;;;;2.12;100.00;98738.44;1727659;82;21074;-66
2022/01/14 03:55:18;;;;;;;4.00;1.85;;;;;;;2.08;100.00;98727.36;1729943;82;21082;-66
2022/01/14 03:57:44;;;;;;;4.10;2.60;;;;;;;2.13;100.00;98724.75;1724560;82;21066;-66
2022/01/14 04:00:12;;;;;;;3.80;2.33;;;;;;;2.15;100.00;98730.72;1746620;82;21051;-66
2022/01/14 04:02:41;;;;;;;3.72;1.92;;;;;;;2.12;100.00;98726.36;1746656;82;21516;-66
2022/01/14 04:05:08;;;;;;;4.70;2.10;;;;;;;2.15;100.00;98714.61;1744555;80;21007;-66
2022/01/14 04:07:34;;;;;;;4.33;1.90;;;;;;;2.17;100.00;98717.03;1738428;80;21035;-67
2022/01/14 04:10:03;;;;;;;3.12;1.72;;;;;;;2.15;100.00;98713.78;1730512;82;21561;-66
2022/01/14 04:13:22;;;;;;;3.33;1.60;;;;;;;2.18;100.00;98707.41;1725567;82;21032;-67
2022/01/14 04:17:27;;;;;;;3.45;1.92;;;;;;;2.18;100.00;98702.56;1725668;82;21514;-66
2022/01/14 04:19:54;;;;;;;4.00;1.98;;;;;;;2.20;100.00;98687.83;1729285;82;21062;-66
2022/01/14 04:22:20;;;;;;;3.92;2.10;;;;;;;2.23;100.00;98690.57;1734652;82;21054;-67
2022/01/14 04:24:48;;;;;;;4.47;2.37;;;;;;;2.21;100.00;98694.83;1750980;82;21086;-66
2022/01/14 04:27:14;;;;;;;5.78;2.30;;;;;;;2.22;100.00;98695.13;1738349;82;21078;-66
2022/01/14 04:29:41;;;;;;;5.70;2.55;;;;;;;2.26;100.00;98698.95;1747881;82;21039;-66
2022/01/14 04:32:07;;;;;;;3.30;2.12;;;;;;;2.27;100.00;98691.69;1735036;82;21589;-66
2022/01/14 04:34:34;;;;;;;3.05;1.70;;;;;;;2.26;100.00;98690.91;1729860;82;21510;-66
2022/01/14 04:37:02;;;;;;;4.12;2.15;;;;;;;2.31;100.00;98684.78;1742715;82;21491;-67
2022/01/14 04:39:28;;;;;;;5.05;2.20;;;;;;;2.30;100.00;98694.70;1735245;82;21015;-67
2022/01/14 04:41:54;;;;;;;3.98;2.10;;;;;;;2.31;100.00;98693.66;1743817;82;20986;-66
2022/01/14 04:44:21;;;;;;;3.17;1.82;;;;;;;2.33;100.00;98688.05;1723516;82;21074;-65
2022/01/14 04:47:00;;;;;;;3.62;1.95;;;;;;;2.31;100.00;98676.20;1732263;82;21322;-67
2022/01/14 04:49:15;;;;;;;4.33;1.82;;;;;;;2.29;100.00;98682.87;1729002;82;21063;-66
2022/01/14 04:51:42;;;;;;;3.60;1.92;;;;;;;2.33;100.00;98679.47;1742490;82;21026;-66
2022/01/14 04:54:09;;;;;;;4.62;2.10;;;;;;;2.33;100.00;98667.91;1739830;82;21106;-67
2022/01/14 04:56:35;;;;;;;3.40;1.87;;;;;;;2.32;100.00;98666.27;1738056;82;21042;-68
2022/01/14 04:59:02;;;;;;;4.17;1.95;;;;;;;2.36;100.00;98656.14;1751123;82;21075;-67
2022/01/14 05:01:29;;;;;;;2.92;1.60;;;;;;;2.37;100.00;98654.28;1743695;82;21031;-65
2022/01/14 05:03:57;;;;;;;3.90;1.90;;;;;;;2.35;100.00;98652.34;1745176;82;21066;-67
2022/01/14 05:06:24;;;;;;;4.28;1.90;;;;;;;2.34;100.00;98651.53;1733011;82;20959;-66
2022/01/14 05:08:50;;;;;;;3.80;2.33;;;;;;;2.35;100.00;98636.23;1739908;82;21117;-66
2022/01/14 05:13:43;;;;;;;4.50;2.10;;;;;;;2.30;100.00;98635.62;1740036;82;21078;-66
2022/01/14 05:16:09;;;;;;;4.47;2.62;;;;;;;2.35;100.00;98632.20;1735508;82;21510;-67
2022/01/14 05:18:38;;;;;;;4.60;2.20;;;;;;;2.33;100.00;98628.97;1723461;82;21090;-66
2022/01/14 05:21:05;;;;;;;6.42;2.35;;;;;;;2.33;100.00;98649.92;1737140;82;21331;-67
2022/01/14 05:23:32;;;;;;;5.40;2.75;;;;;;;2.36;100.00;98627.95;1730015;82;21055;-66
2022/01/14 05:25:58;;;;;;;3.10;2.10;;;;;;;2.35;100.00;98634.37;1735515;82;21561;-66
2022/01/14 05:28:24;;;;;;;5.70;2.25;;;;;;;2.32;100.00;98629.49;1742607;82;21019;-67
2022/01/14 05:30:50;;;;;;;4.55;2.37;;;;;;;2.39;100.00;98623.42;1739889;82;21478;-65
2022/01/14 05:33:17;;;;;;;6.03;3.33;;;;;;;2.39;100.00;98624.77;1733880;82;20960;-66
2022/01/14 05:35:44;;;;;;;6.15;3.00;;;;;;;2.35;100.00;98612.88;1739796;82;21002;-66
2022/01/14 05:38:10;;;;;;;5.53;2.83;;;;;;;2.39;100.00;98608.65;1750194;82;21058;-66
2022/01/14 05:40:36;;;;;;;6.70;3.67;;;;;;;2.42;100.00;98610.02;1745057;82;21034;-66
2022/01/14 05:43:03;;;;;;;7.03;3.58;;;;;;;2.39;100.00;98601.12;1738294;82;21077;-65
2022/01/14 05:45:29;;;;;;;5.90;3.30;;;;;;;2.42;100.00;98600.09;1738894;82;21047;-66
2022/01/14 05:47:56;;;;;;;5.83;3.22;;;;;;;2.46;100.00;98589.14;1752968;82;21569;-67
2022/01/14 05:50:24;;;;;;;7.08;3.72;;;;;;;2.43;100.00;98587.48;1729510;82;21003;-66
2022/01/14 05:52:50;;;;;;;6.67;3.25;;;;;;;2.46;100.00;98578.92;1725199;82;21128;-67
2022/01/14 05:55:19;;;;;;;6.42;3.87;;;;;;;2.51;100.00;98582.48;1751550;82;21527;-66
2022/01/14 05:57:45;;;;;;;7.40;4.03;;;;;;;2.46;100.00;98594.52;1753080;82;21066;-66
2022/01/14 06:00:15;;;;;;;8.43;4.17;;;;;;;2.49;100.00;98571.19;1749470;82;21505;-66
2022/01/14 06:02:48;;;;;;;8.08;4.10;;;;;;;2.55;100.00;98561.31;1743558;82;21605;-67
2022/01/14 06:05:14;;;;;;;7.53;3.72;;;;;;;2.53;100.00;98559.41;1751749;82;21038;-68
2022/01/14 06:07:40;;;;;;;7.87;4.03;;;;;;;2.56;100.00;98548.17;1750739;81;21531;-66
2022/01/14 06:10:08;;;;;;;10.15;4.37;;;;;;;2.62;100.00;98569.22;1725767;82;21038;-66
2022/01/14 06:12:34;;;;;;;10.55;4.53;;;;;;;2.58;100.00;98561.36;1741794;82;21079;-66
2022/01/14 06:15:03;;;;;;;7.83;4.40;;;;;;;2.64;100.00;98548.27;1753100;82;21042;-67
2022/01/14 06:17:30;;;;;;;8.35;5.15;;;;;;;2.67;100.00;98554.48;1750412;82;21071;-67
2022/01/14 06:19:56;;;;;;;9.70;4.60;;;;;;;2.65;100.00;98545.34;1718230;82;21038;-66
2022/01/14 06:22:23;;;;;;;8.33;4.55;;;;;;;2.70;100.00;98545.39;1709777;84;21039;-66
2022/01/14 06:24:49;;;;;;;12.20;4.90;;;;;;;2.73;100.00;98550.82;1720643;82;21461;-67
2022/01/14 06:27:15;;;;;;;9.18;4.90;;;;;;;2.72;100.00;98550.01;1717642;82;21028;-67
2022/01/14 06:29:42;;;;;;;10.50;5.45;;;;;;;2.77;100.00;98550.58;1714750;82;21015;-66
2022/01/14 06:32:08;;;;;;;11.20;5.00;;;;;;;2.77;100.00;98535.27;1716147;82;21007;-66
2022/01/14 06:34:35;;;;;;;8.25;5.00;;;;;;;2.79;100.00;98541.75;1710111;82;21609;-66
2022/01/14 06:37:02;;;;;;;8.50;4.95;;;;;;;2.86;100.00;98518.19;1710274;82;21056;-65
2022/01/14 06:39:29;;;;;;;11.60;4.87;;;;;;;2.82;100.00;98519.22;1737975;82;21649;-66
2022/01/14 06:41:56;;;;;;;10.10;5.08;;;;;;;2.86;100.00;98520.88;1737176;82;21027;-66
2022/01/14 06:44:22;;;;;;;9.95;5.53;;;;;;;2.91;100.00;98504.78;1727146;82;21576;-66
2022/01/14 06:46:49;;;;;;;11.83;5.60;;;;;;;2.87;100.00;98500.44;1738971;82;21052;-66
2022/01/14 06:49:15;;;;;;;9.58;5.17;;;;;;;2.90;100.00;98509.90;1739159;82;21003;-66
2022/01/14 06:51:41;;;;;;;9.53;4.90;;;;;;;2.91;100.00;98494.03;1725919;82;21040;-66
2022/01/14 06:54:07;;;;;;;10.35;4.97;;;;;;;2.86;100.00;98496.16;1717741;82;21027;-66
2022/01/14 06:56:34;;;;;;;10.63;5.12;;;;;;;2.88;100.00;98491.33;1709191;83;21118;-66
2022/01/14 06:59:01;;;;;;;10.72;5.28;;;;;;;2.91;100.00;98486.78;1709582;83;21051;-66
2022/01/14 07:01:27;;;;;;;10.68;5.10;;;;;;;2.92;100.00;98477.66;1711126;82;21012;-66
2022/01/14 07:03:53;;;;;;;9.25;5.10;;;;;;;2.95;100.00;98467.75;1710322;82;21082;-66
2022/01/14 07:06:20;;;;;;;8.50;4.80;;;;;;;2.93;100.00;98461.83;1709479;84;21550;-66
2022/01/14 07:08:46;;;;;;;10.93;5.60;;;;;;;2.93;100.00;98452.94;1709493;84;21055;-66
2022/01/14 07:11:15;;;;;;;9.90;5.67;;;;;;;2.98;100.00;98461.05;1722430;82;21511;-68
2022/01/14 07:13:42;;;;;;;11.33;5.87;;;;;;;2.94;100.00;98467.45;1715741;82;21059;-68
2022/01/14 07:16:08;;;;;;;10.55;5.45;;;;;;;2.93;100.00;98471.23;1721899;82;21039;-68
2022/01/14 07:18:34;;;;;;;10.82;5.45;;;;;;;3.00;100.00;98454.90;1738534;82;21056;-68
2022/01/14 07:21:01;;;;;;;12.73;5.30;;;;;;;2.99;100.00;98460.80;1733669;81;21066;-69
2022/01/14 07:23:27;;;;;;;12.33;6.05;;;;;;;2.98;100.00;98470.45;1731419;82;21052;-70
2022/01/14 07:25:53;;;;;;;10.45;6.22;;;;;;;3.07;100.00;98454.69;1745613;81;21054;-69
2022/01/14 07:28:20;;;;;;;12.70;5.55;;;;;;;3.07;100.00;98450.66;1746076;82;21050;-69
2022/01/14 07:30:46;;;;;;;11.75;5.40;;;;;;;3.03;100.00;98458.42;1722198;82;21058;-69
2022/01/14 07:33:12;;;;;;;11.25;5.70;;;;;;;3.07;100.00;98441.25;1717763;82;21035;-69
2022/01/14 07:35:40;;;;;;;10.15;5.30;;;;;;;3.01;100.00;98453.28;1717235;83;21541;-69
2022/01/14 07:38:06;;;;;;;9.23;5.03;;;;;;;3.05;100.00;98442.83;1717220;83;21043;-69
2022/01/14 07:40:32;;;;;;;8.40;4.80;;;;;;;3.09;100.00;98441.79;1674159;85;21059;-68
2022/01/14 07:42:59;;;;;;;8.08;4.72;;;;;;;3.06;100.00;98436.39;1683034;85;21107;-69
2022/01/14 07:45:25;;;;;;;9.68;5.28;;;;;;;3.12;100.00;98439.40;1699315;84;21036;-69
2022/01/14 07:47:51;;;;;;;8.40;4.55;;;;;;;3.16;100.00;98430.30;1707873;84;21098;-69
2022/01/14 07:50:18;;;;;;;6.75;4.03;;;;;;;3.15;100.00;98442.95;1710756;84;21063;-69
2022/01/14 07:52:44;;;;;;;9.30;4.75;;;;;;;3.21;100.00;98433.04;1713379;84;21083;-69
2022/01/14 07:55:11;;;;;;;9.65;4.45;;;;;;;3.22;100.00;98402.40;1713367;83;21067;-69
2022/01/14 07:57:37;;;;;;;7.78;4.90;;;;;;;3.22;100.00;98413.97;1713177;84;21079;-69
2022/01/14 08:00:06;;;;;;;10.20;4.83;;;;;;;3.28;100.00;98411.59;1707000;84;21007;-69
2022/01/14 08:02:35;;;;;;;8.35;4.72;;;;;;;3.28;100.00;98398.14;1690159;84;21142;-69
2022/01/14 08:05:02;;;;;;;7.28;3.65;;;;;;;3.28;100.00;98398.14;1684764;85;21530;-68
2022/01/14 08:07:30;;;;;;;6.40;3.60;;;;;;;3.35;100.00;98405.46;1694946;84;21606;-69
2022/01/14 08:09:56;;;;;;;5.03;2.95;;;;;;;3.33;100.00;98398.73;1695636;82;21066;-71
2022/01/14 08:12:23;;;;;;;6.47;3.70;;;;;;;3.35;100.00;98389.85;1718799;82;21600;-69
2022/01/14 08:14:49;;;;;;;;;;;;;;;3.40;100.00;98390.69;1691125;84;21067;-68
2022/01/14 08:17:18;;;;;;;5.37;3.08;;;;;;;3.38;100.00;98374.01;1708103;84;20161;-69
2022/01/14 08:19:44;;;;;;;6.58;3.15;;;;;;;3.35;100.00;98348.16;1707588;83;21531;-69
2022/01/14 08:22:10;;;;;;;7.80;3.85;;;;;;;3.40;100.00;98357.63;1688388;84;21091;-69
2022/01/14 08:24:37;;;;;;;6.17;3.40;;;;;;;3.38;100.00;98343.61;1696869;84;21530;-70
2022/01/14 08:27:07;;;;;;;5.25;2.90;;;;;;;3.43;100.00;98343.65;1694124;84;21039;-69
2022/01/14 08:29:34;;;;;;;6.12;3.72;;;;;;;3.50;100.00;98342.89;1701215;84;21047;-70
2022/01/14 08:32:01;;;;;;;5.35;3.15;;;;;;;3.47;100.00;98329.40;1680310;84;21076;-69
2022/01/14 08:34:27;;;;;;;7.67;3.92;;;;;;;3.48;100.00;98326.17;1705819;84;21035;-69
2022/01/14 08:36:54;;;;;;;7.25;4.03;;;;;;;3.50;100.00;98326.22;1698082;84;21007;-68
2022/01/14 08:39:20;;;;;;;6.55;3.50;;;;;;;3.49;100.00;98327.28;1670908;85;21573;-69
2022/01/14 08:41:46;;;;;;;6.67;3.60;;;;;;;3.53;100.00;98315.98;1709710;84;21421;-69
2022/01/14 08:44:14;;;;;;;6.80;3.37;;;;;;;3.56;100.00;98320.31;1710608;82;21043;-69
2022/01/14 08:46:41;;;;;;;6.15;3.30;;;;;;;3.54;100.00;98321.12;1725025;82;21026;-67
2022/01/14 08:49:09;;;;;;;5.72;3.60;;;;;;;3.58;100.00;98306.61;1721926;82;21538;-68
2022/01/14 08:51:36;;;;;;;7.15;3.87;;;;;;;3.61;100.00;98316.85;1722327;82;20968;-69
2022/01/14 08:54:03;;;;;;;6.90;3.70;;;;;;;3.55;100.00;98299.84;1730132;82;21047;-68
2022/01/14 08:56:32;;;;;;;7.12;3.60;;;;;;;3.58;100.00;98289.13;1721797;82;21039;-69
2022/01/14 08:58:59;;;;;;;7.03;3.50;;;;;;;3.59;100.00;98290.19;1730266;82;21578;-70
2022/01/14 09:01:25;;;;;;;;;;;;;;;3.59;100.00;98290.72;1731630;82;21031;-69
2022/01/14 09:03:51;;;;;;;6.15;3.75;;;;;;;3.61;100.00;98281.34;1721069;82;20113;-70
2022/01/14 09:06:18;;;;;;;4.78;3.30;;;;;;;3.52;100.00;98274.81;1714912;82;21023;-69
2022/01/14 09:08:44;;;;;;;5.83;3.70;;;;;;;3.53;100.00;98262.99;1733746;82;21539;-68
2022/01/14 09:11:10;;;;;;;6.22;3.77;;;;;;;3.58;100.00;98258.18;1722418;82;21032;-69
2022/01/14 11:05:39;;;;;;;7.70;4.00;;;;;;;2.91;100.00;97930.40;1800258;79;22655;-65
2022/01/14 11:25:11;;;;;;;6.00;3.75;;;;;;;2.79;100.00;97873.42;1752127;82;21019;-67
2022/01/14 11:27:39;;;;;;;6.62;3.85;;;;;;;3.01;100.00;97887.40;1751274;81;21082;-65
2022/01/14 11:30:13;;;;;;;7.40;4.35;;;;;;;3.13;100.00;97870.20;1752855;82;20959;-65
2022/01/14 11:32:55;;;;;;;8.63;3.52;;;;;;;3.18;100.00;97851.40;1724930;82;21735;-66
2022/01/14 11:35:23;;;;;;;9.08;4.47;;;;;;;3.26;100.00;97834.16;1723044;83;21057;-65
2022/01/14 11:37:50;;;;;;;8.60;4.10;;;;;;;3.31;100.00;97823.95;1742612;82;21039;-65
2022/01/14 11:40:16;;;;;;;6.65;3.80;;;;;;;3.37;100.00;97804.84;1750646;81;20995;-65
2022/01/14 11:42:58;;;;;;;6.62;3.80;;;;;;;3.42;100.00;97804.03;1750907;82;21513;-65
2022/01/14 11:45:48;;;;;;;6.12;3.98;;;;;;;3.38;100.00;97805.11;1752468;82;21003;-65
2022/01/14 11:48:33;;;;;;;8.38;4.33;;;;;;;3.44;100.00;97799.98;1739176;82;21035;-64
2022/01/14 11:51:08;;;;;;;6.67;3.47;;;;;;;3.42;100.00;97790.58;1751839;82;21023;-65
2022/01/14 11:53:54;;;;;;;6.35;3.60;;;;;;;3.39;100.00;97816.15;1750522;82;21102;-65
2022/01/14 11:56:38;;;;;;;6.00;3.45;;;;;;;3.43;100.00;97788.98;1740874;82;21042;-65
2022/01/14 11:59:26;;;;;;;5.25;3.33;;;;;;;3.39;100.00;97785.22;1747179;82;21503;-65
2022/01/14 12:01:55;;;;;;;9.03;4.17;;;;;;;3.45;100.00;97786.81;1752998;82;21074;-64
2022/01/14 12:04:23;;;;;;;5.80;3.50;;;;;;;3.45;100.00;97783.31;1728761;82;21015;-65
2022/01/14 12:06:59;;;;;;;6.97;3.92;;;;;;;3.46;100.00;97773.64;1733115;82;21596;-64
2022/01/14 12:09:33;;;;;;;;;;;;;;;3.47;100.00;97751.58;1755267;82;21486;-65
2022/01/14 12:12:24;;;;;;;5.28;3.40;;;;;;;3.45;100.00;97759.10;1742715;82;20113;-65
2022/01/14 12:14:59;;;;;;;7.95;4.33;;;;;;;3.44;100.00;97744.84;1727292;82;21047;-64
2022/01/14 12:17:36;;;;;;;5.85;3.67;;;;;;;3.42;100.00;97735.45;1742239;82;21553;-65
2022/01/14 12:20:15;;;;;;;;;;;;;;;3.42;100.00;97728.72;1725723;83;21003;-65
2022/01/14 12:23:04;;;;;;;5.10;2.95;;;;;;;3.45;100.00;97712.03;1722822;83;20164;-65
2022/01/14 12:25:42;;;;;;;;;;;;;;;3.35;100.00;97711.53;1730904;82;21074;-66
2022/01/14 12:28:19;;;;;;;4.50;2.62;;;;;;;3.40;100.00;97709.38;1723074;82;20105;-65
2022/01/14 12:31:02;;;;;;;5.72;3.10;;;;;;;3.38;100.00;97712.33;1723201;83;21046;-64
2022/01/14 12:33:48;;;;;;;5.55;3.20;;;;;;;3.36;100.00;97705.08;1722692;83;21605;-65
2022/01/14 12:36:20;;;;;;;5.97;3.00;;;;;;;3.44;100.00;97721.17;1727400;82;21585;-64
2022/01/14 12:38:48;;;;;;;5.12;2.90;;;;;;;3.43;100.00;97716.89;1752098;82;21100;-65
2022/01/14 12:41:27;;;;;;;6.42;3.92;;;;;;;3.41;100.00;97715.80;1752393;82;21070;-65
2022/01/14 12:43:53;;;;;;;5.05;2.80;;;;;;;3.44;100.00;97695.08;1751976;82;21039;-65
2022/01/14 12:46:45;;;;;;;5.45;3.50;;;;;;;3.41;100.00;97701.55;1747707;82;21023;-64
2022/01/14 12:49:08;;;;;;;4.92;3.22;;;;;;;3.44;100.00;97688.36;1750981;82;21043;-64
2022/01/14 12:51:36;;;;;;;4.87;2.42;;;;;;;3.43;100.00;97687.30;1752529;82;21035;-65
2022/01/14 12:54:04;;;;;;;4.30;2.70;;;;;;;3.39;100.00;97682.20;1735917;82;21026;-65
2022/01/14 12:56:35;;;;;;;5.40;2.62;;;;;;;3.42;100.00;97678.96;1741905;82;21454;-65
2022/01/14 12:59:07;;;;;;;3.45;2.40;;;;;;;3.43;100.00;97666.59;1738115;82;21830;-65
2022/01/14 13:01:40;;;;;;;4.30;2.17;;;;;;;3.43;100.00;97667.13;1752469;81;21047;-65
2022/01/14 13:04:12;;;;;;;4.03;2.10;;;;;;;3.47;100.00;97663.59;1741548;82;21015;-66
2022/01/14 13:06:57;;;;;;;3.98;2.37;;;;;;;3.46;100.00;97659.31;1722511;83;21564;-65
2022/01/14 13:09:29;;;;;;;3.15;2.17;;;;;;;3.44;100.00;97663.34;1722336;82;21528;-65
2022/01/14 13:12:05;;;;;;;4.22;2.40;;;;;;;3.44;100.00;97630.52;1723401;82;21064;-65
2022/01/14 13:14:39;;;;;;;2.58;1.70;;;;;;;3.44;100.00;97628.38;1752314;81;21051;-65
2022/01/14 13:17:18;;;;;;;3.50;1.98;;;;;;;3.41;100.00;97632.42;1752270;81;21557;-65
2022/01/14 13:19:45;;;;;;;3.52;1.92;;;;;;;3.46;100.00;97632.95;1750274;82;21074;-65
2022/01/14 13:25:25;;;;;;;4.17;2.05;;;;;;;3.37;100.00;97621.95;1817491;79;22812;-69
2022/01/14 13:27:55;;;;;;;2.60;1.80;;;;;;;3.27;100.00;97619.84;1773472;80;21450;-69
2022/01/14 13:30:34;;;;;;;3.52;1.72;;;;;;;3.31;100.00;97617.69;1740655;81;21493;-69
2022/01/14 13:33:04;;;;;;;3.08;1.80;;;;;;;3.36;100.00;97610.14;1738362;81;21065;-69
2022/01/14 13:35:36;;;;;;;3.40;2.00;;;;;;;3.33;100.00;97614.17;1735465;81;21007;-69
2022/01/14 13:38:08;;;;;;;4.85;1.95;;;;;;;3.37;100.00;97607.16;1732130;83;21145;-69
2022/01/14 13:40:52;;;;;;;3.92;2.35;;;;;;;3.40;100.00;97609.86;1733239;83;21520;-68
2022/01/14 13:43:22;;;;;;;3.45;1.98;;;;;;;3.37;100.00;97596.41;1757628;81;21149;-69
2022/01/14 13:45:53;;;;;;;3.60;1.90;;;;;;;3.44;100.00;97600.94;1763477;80;21001;-69
2022/01/14 13:48:25;;;;;;;2.42;1.75;;;;;;;3.47;100.00;97593.66;1762731;81;21081;-69
2022/01/14 13:50:57;;;;;;;3.75;1.55;;;;;;;3.48;100.00;97603.88;1753831;81;21327;-69
2022/01/14 13:53:28;;;;;;;2.85;1.57;;;;;;;3.57;100.00;97592.00;1735422;81;21054;-69
2022/01/14 13:55:56;;;;;;;2.62;1.30;;;;;;;3.56;100.00;97588.50;1733572;83;21529;-69
2022/01/14 13:58:27;;;;;;;3.72;1.92;;;;;;;3.63;100.00;97570.70;1733751;83;21078;-68
2022/01/14 14:00:56;;;;;;;3.40;1.70;;;;;;;3.68;100.00;97584.14;1739128;81;21010;-69
2022/01/14 14:03:42;;;;;;;4.60;2.37;;;;;;;3.64;100.00;97579.85;1733578;83;21583;-68
2022/01/14 14:06:20;;;;;;;4.75;2.42;;;;;;;3.65;100.00;97576.06;1734306;81;21532;-69
2022/01/14 14:08:49;;;;;;;8.05;4.22;;;;;;;3.65;100.00;97569.33;1752354;81;21034;-68
2022/01/14 14:17:13;;;;;;;2.22;1.22;;;;;;;3.68;100.00;97547.27;1733611;83;21042;-69
2022/01/14 14:19:58;;;;;;;1.87;1.10;;;;;;;3.72;100.00;97542.91;1736063;81;21010;-69
2022/01/14 14:22:39;;;;;;;2.98;1.30;;;;;;;3.79;100.00;97548.00;1758822;81;21634;-69
2022/01/14 14:25:18;;;;;;;2.60;1.55;;;;;;;3.80;100.00;97553.09;1753370;80;21035;-69
2022/01/14 14:30:14;;;;;;;2.27;1.20;;;;;;;3.90;100.00;97529.31;1808472;79;22832;-69
2022/01/14 14:32:42;;;;;;;2.55;1.30;;;;;;;3.87;100.00;97529.88;1774582;80;20940;-69
2022/01/14 14:35:16;;;;;;;2.85;1.52;;;;;;;3.94;100.00;97545.97;1742042;82;20979;-69
2022/01/14 14:37:47;;;;;;;3.55;1.42;;;;;;;3.95;100.00;97503.17;1731944;82;20967;-69
2022/01/14 14:40:16;;;;;;;2.62;1.12;;;;;;;3.99;100.00;97533.02;1751310;82;20995;-69
2022/01/14 14:42:41;;;;;;;2.45;1.25;;;;;;;4.06;100.00;97513.31;1748848;80;20998;-69
2022/01/14 14:45:08;;;;;;;1.92;0.95;;;;;;;4.10;100.00;97522.97;1730799;83;21039;-69